sensor_id;sensor_type;location;lat;lon;timestamp;P1;durP1;ratioP1;P2;durP2;ratioP2
83835;SDS011;73859;40.830;43.828;2023-12-20T00:00:37;9.27;;;4.43;;
83835;SDS011;73859;40.830;43.828;2023-12-20T00:03:04;8.82;;;5.05;;
83835;SDS011;73859;40.830;43.828;2023-12-20T00:05:32;8.30;;;4.60;;
83835;SDS011;73859;40.830;43.828;2023-12-20T00:08:00;7.18;;;4.15;;
83835;SDS011;73859;40.830;43.828;2023-12-20T00:10:27;11.10;;;5.63;;
83835;SDS011;73859;40.830;43.828;2023-12-20T00:12:55;9.30;;;4.97;;
83835;SDS011;73859;40.830;43.828;2023-12-20T00:15:22;10.18;;;4.88;;
83835;SDS011;73859;40.830;43.828;2023-12-20T00:17:50;10.20;;;4.35;;
83835;SDS011;73859;40.830;43.828;2023-12-20T00:20:17;11.40;;;5.55;;
83835;SDS011;73859;40.830;43.828;2023-12-20T00:22:44;9.50;;;4.78;;
83835;SDS011;73859;40.830;43.828;2023-12-20T00:25:12;11.05;;;5.22;;
83835;SDS011;73859;40.830;43.828;2023-12-20T00:27:39;12.80;;;5.47;;
83835;SDS011;73859;40.830;43.828;2023-12-20T00:30:07;11.13;;;5.88;;
83835;SDS011;73859;40.830;43.828;2023-12-20T00:32:35;13.95;;;5.55;;
83835;SDS011;73859;40.830;43.828;2023-12-20T00:35:03;14.80;;;4.70;;
83835;SDS011;73859;40.830;43.828;2023-12-20T00:37:31;6.30;;;3.83;;
83835;SDS011;73859;40.830;43.828;2023-12-20T00:39:58;9.13;;;4.25;;
83835;SDS011;73859;40.830;43.828;2023-12-20T00:42:26;6.82;;;3.78;;
83835;SDS011;73859;40.830;43.828;2023-12-20T00:44:53;8.75;;;4.30;;
83835;SDS011;73859;40.830;43.828;2023-12-20T00:47:21;7.72;;;3.80;;
83835;SDS011;73859;40.830;43.828;2023-12-20T00:49:49;9.60;;;4.90;;
83835;SDS011;73859;40.830;43.828;2023-12-20T00:52:16;13.63;;;5.03;;
83835;SDS011;73859;40.830;43.828;2023-12-20T00:54:48;10.55;;;5.07;;
83835;SDS011;73859;40.830;43.828;2023-12-20T00:57:16;10.00;;;5.00;;
83835;SDS011;73859;40.830;43.828;2023-12-20T00:59:43;11.13;;;5.03;;
83835;SDS011;73859;40.830;43.828;2023-12-20T01:02:10;15.25;;;5.22;;
83835;SDS011;73859;40.830;43.828;2023-12-20T01:04:38;11.45;;;4.97;;
83835;SDS011;73859;40.830;43.828;2023-12-20T01:07:05;10.68;;;4.97;;
83835;SDS011;73859;40.830;43.828;2023-12-20T01:09:33;8.73;;;3.95;;
83835;SDS011;73859;40.830;43.828;2023-12-20T01:12:00;9.05;;;5.13;;
83835;SDS011;73859;40.830;43.828;2023-12-20T01:14:28;11.45;;;4.70;;
83835;SDS011;73859;40.830;43.828;2023-12-20T01:16:55;7.75;;;4.03;;
83835;SDS011;73859;40.830;43.828;2023-12-20T01:19:22;9.63;;;4.63;;
83835;SDS011;73859;40.830;43.828;2023-12-20T01:21:51;8.40;;;4.65;;
83835;SDS011;73859;40.830;43.828;2023-12-20T01:24:19;8.35;;;3.95;;
83835;SDS011;73859;40.830;43.828;2023-12-20T01:26:46;9.30;;;4.32;;
83835;SDS011;73859;40.830;43.828;2023-12-20T01:29:13;10.20;;;4.68;;
83835;SDS011;73859;40.830;43.828;2023-12-20T01:31:41;13.18;;;5.93;;
83835;SDS011;73859;40.830;43.828;2023-12-20T01:34:09;10.40;;;4.78;;
83835;SDS011;73859;40.830;43.828;2023-12-20T01:36:36;12.45;;;5.38;;
83835;SDS011;73859;40.830;43.828;2023-12-20T01:39:04;9.13;;;4.78;;
83835;SDS011;73859;40.830;43.828;2023-12-20T01:41:42;10.75;;;5.38;;
83835;SDS011;73859;40.830;43.828;2023-12-20T01:44:09;9.05;;;3.90;;
83835;SDS011;73859;40.830;43.828;2023-12-20T01:46:37;16.42;;;5.97;;
83835;SDS011;73859;40.830;43.828;2023-12-20T01:49:04;27.73;;;10.82;;
83835;SDS011;73859;40.830;43.828;2023-12-20T01:51:32;22.73;;;11.88;;
83835;SDS011;73859;40.830;43.828;2023-12-20T01:54:00;26.63;;;13.48;;
83835;SDS011;73859;40.830;43.828;2023-12-20T01:56:28;26.30;;;14.10;;
83835;SDS011;73859;40.830;43.828;2023-12-20T01:58:56;26.48;;;13.20;;
83835;SDS011;73859;40.830;43.828;2023-12-20T02:01:25;28.10;;;13.05;;
83835;SDS011;73859;40.830;43.828;2023-12-20T02:03:52;29.63;;;13.38;;
83835;SDS011;73859;40.830;43.828;2023-12-20T02:06:20;29.60;;;13.10;;
83835;SDS011;73859;40.830;43.828;2023-12-20T02:08:50;29.55;;;12.32;;
83835;SDS011;73859;40.830;43.828;2023-12-20T02:11:17;28.00;;;14.43;;
83835;SDS011;73859;40.830;43.828;2023-12-20T02:13:44;25.38;;;13.15;;
83835;SDS011;73859;40.830;43.828;2023-12-20T02:16:12;26.95;;;13.77;;
83835;SDS011;73859;40.830;43.828;2023-12-20T02:18:39;35.03;;;17.08;;
83835;SDS011;73859;40.830;43.828;2023-12-20T02:21:10;31.23;;;15.05;;
83835;SDS011;73859;40.830;43.828;2023-12-20T02:23:38;29.73;;;15.50;;
83835;SDS011;73859;40.830;43.828;2023-12-20T02:26:05;30.42;;;16.00;;
83835;SDS011;73859;40.830;43.828;2023-12-20T02:28:33;30.08;;;14.50;;
83835;SDS011;73859;40.830;43.828;2023-12-20T02:31:01;31.75;;;14.38;;
83835;SDS011;73859;40.830;43.828;2023-12-20T02:33:28;25.25;;;13.07;;
83835;SDS011;73859;40.830;43.828;2023-12-20T02:35:56;29.95;;;13.90;;
83835;SDS011;73859;40.830;43.828;2023-12-20T02:38:23;16.85;;;8.70;;
83835;SDS011;73859;40.830;43.828;2023-12-20T02:40:51;22.40;;;10.07;;
83835;SDS011;73859;40.830;43.828;2023-12-20T02:43:18;18.48;;;8.43;;
83835;SDS011;73859;40.830;43.828;2023-12-20T02:45:45;17.27;;;7.55;;
83835;SDS011;73859;40.830;43.828;2023-12-20T02:48:13;15.65;;;7.93;;
83835;SDS011;73859;40.830;43.828;2023-12-20T02:50:40;16.25;;;7.80;;
83835;SDS011;73859;40.830;43.828;2023-12-20T02:53:08;14.60;;;6.43;;
83835;SDS011;73859;40.830;43.828;2023-12-20T02:55:35;16.02;;;8.38;;
83835;SDS011;73859;40.830;43.828;2023-12-20T02:58:03;14.95;;;7.50;;
83835;SDS011;73859;40.830;43.828;2023-12-20T03:00:30;15.27;;;6.85;;
83835;SDS011;73859;40.830;43.828;2023-12-20T03:02:57;15.73;;;7.55;;
83835;SDS011;73859;40.830;43.828;2023-12-20T03:05:26;15.18;;;7.53;;
83835;SDS011;73859;40.830;43.828;2023-12-20T03:07:54;14.32;;;7.07;;
83835;SDS011;73859;40.830;43.828;2023-12-20T03:10:21;16.75;;;8.70;;
83835;SDS011;73859;40.830;43.828;2023-12-20T03:12:53;22.08;;;7.40;;
83835;SDS011;73859;40.830;43.828;2023-12-20T03:15:20;11.13;;;7.00;;
83835;SDS011;73859;40.830;43.828;2023-12-20T03:17:47;13.43;;;7.32;;
83835;SDS011;73859;40.830;43.828;2023-12-20T03:20:15;13.10;;;6.15;;
83835;SDS011;73859;40.830;43.828;2023-12-20T03:22:43;16.77;;;7.25;;
83835;SDS011;73859;40.830;43.828;2023-12-20T03:25:10;11.98;;;6.05;;
83835;SDS011;73859;40.830;43.828;2023-12-20T03:27:37;17.05;;;7.13;;
83835;SDS011;73859;40.830;43.828;2023-12-20T03:30:08;15.15;;;6.88;;
83835;SDS011;73859;40.830;43.828;2023-12-20T03:32:36;22.20;;;7.53;;
83835;SDS011;73859;40.830;43.828;2023-12-20T03:35:05;15.30;;;7.13;;
83835;SDS011;73859;40.830;43.828;2023-12-20T03:37:33;11.48;;;6.32;;
83835;SDS011;73859;40.830;43.828;2023-12-20T03:40:00;15.07;;;6.57;;
83835;SDS011;73859;40.830;43.828;2023-12-20T03:42:28;12.30;;;6.72;;
83835;SDS011;73859;40.830;43.828;2023-12-20T03:44:56;11.27;;;6.38;;
83835;SDS011;73859;40.830;43.828;2023-12-20T03:47:23;23.27;;;8.38;;
83835;SDS011;73859;40.830;43.828;2023-12-20T03:49:50;18.20;;;9.32;;
83835;SDS011;73859;40.830;43.828;2023-12-20T03:52:18;20.27;;;7.78;;
83835;SDS011;73859;40.830;43.828;2023-12-20T03:54:46;17.67;;;7.60;;
83835;SDS011;73859;40.830;43.828;2023-12-20T03:57:13;13.95;;;7.70;;
83835;SDS011;73859;40.830;43.828;2023-12-20T03:59:40;22.85;;;7.97;;
83835;SDS011;73859;40.830;43.828;2023-12-20T04:02:08;15.35;;;8.02;;
83835;SDS011;73859;40.830;43.828;2023-12-20T04:04:35;14.68;;;8.43;;
83835;SDS011;73859;40.830;43.828;2023-12-20T04:07:03;16.35;;;7.78;;
83835;SDS011;73859;40.830;43.828;2023-12-20T04:09:30;19.73;;;8.23;;
83835;SDS011;73859;40.830;43.828;2023-12-20T04:11:58;16.30;;;7.65;;
83835;SDS011;73859;40.830;43.828;2023-12-20T04:14:25;14.15;;;6.38;;
83835;SDS011;73859;40.830;43.828;2023-12-20T04:16:53;12.70;;;6.22;;
83835;SDS011;73859;40.830;43.828;2023-12-20T04:19:20;11.50;;;6.18;;
83835;SDS011;73859;40.830;43.828;2023-12-20T04:21:48;20.75;;;7.13;;
83835;SDS011;73859;40.830;43.828;2023-12-20T04:24:15;18.33;;;10.13;;
83835;SDS011;73859;40.830;43.828;2023-12-20T04:26:43;17.40;;;7.82;;
83835;SDS011;73859;40.830;43.828;2023-12-20T04:29:11;16.73;;;10.45;;
83835;SDS011;73859;40.830;43.828;2023-12-20T04:31:38;26.42;;;10.85;;
83835;SDS011;73859;40.830;43.828;2023-12-20T04:34:05;18.08;;;9.43;;
83835;SDS011;73859;40.830;43.828;2023-12-20T04:36:33;22.10;;;8.82;;
83835;SDS011;73859;40.830;43.828;2023-12-20T04:39:00;15.05;;;7.55;;
83835;SDS011;73859;40.830;43.828;2023-12-20T04:41:28;15.52;;;7.32;;
83835;SDS011;73859;40.830;43.828;2023-12-20T04:43:55;15.35;;;7.68;;
83835;SDS011;73859;40.830;43.828;2023-12-20T04:46:22;14.00;;;6.70;;
83835;SDS011;73859;40.830;43.828;2023-12-20T04:48:50;17.10;;;7.10;;
83835;SDS011;73859;40.830;43.828;2023-12-20T04:51:17;13.57;;;7.85;;
83835;SDS011;73859;40.830;43.828;2023-12-20T04:53:45;14.45;;;7.13;;
83835;SDS011;73859;40.830;43.828;2023-12-20T04:56:12;21.13;;;7.90;;
83835;SDS011;73859;40.830;43.828;2023-12-20T04:58:39;21.77;;;9.30;;
83835;SDS011;73859;40.830;43.828;2023-12-20T05:01:07;22.50;;;10.10;;
83835;SDS011;73859;40.830;43.828;2023-12-20T05:03:35;21.00;;;9.00;;
83835;SDS011;73859;40.830;43.828;2023-12-20T05:06:03;18.83;;;8.77;;
83835;SDS011;73859;40.830;43.828;2023-12-20T05:08:30;30.85;;;9.88;;
83835;SDS011;73859;40.830;43.828;2023-12-20T05:10:58;21.92;;;9.60;;
83835;SDS011;73859;40.830;43.828;2023-12-20T05:13:25;24.52;;;9.55;;
83835;SDS011;73859;40.830;43.828;2023-12-20T05:16:07;19.63;;;10.07;;
83835;SDS011;73859;40.830;43.828;2023-12-20T05:18:36;37.15;;;13.70;;
83835;SDS011;73859;40.830;43.828;2023-12-20T05:21:03;29.17;;;14.13;;
83835;SDS011;73859;40.830;43.828;2023-12-20T05:23:31;26.75;;;12.52;;
83835;SDS011;73859;40.830;43.828;2023-12-20T05:25:58;30.35;;;18.02;;
83835;SDS011;73859;40.830;43.828;2023-12-20T05:28:26;44.05;;;18.23;;
83835;SDS011;73859;40.830;43.828;2023-12-20T05:30:53;35.78;;;15.38;;
83835;SDS011;73859;40.830;43.828;2023-12-20T05:33:21;33.50;;;13.80;;
83835;SDS011;73859;40.830;43.828;2023-12-20T05:35:49;39.78;;;14.82;;
83835;SDS011;73859;40.830;43.828;2023-12-20T05:38:16;29.55;;;15.27;;
83835;SDS011;73859;40.830;43.828;2023-12-20T05:40:44;34.60;;;12.60;;
83835;SDS011;73859;40.830;43.828;2023-12-20T05:43:11;29.63;;;12.85;;
83835;SDS011;73859;40.830;43.828;2023-12-20T05:45:38;33.80;;;12.95;;
83835;SDS011;73859;40.830;43.828;2023-12-20T05:48:06;35.20;;;14.50;;
83835;SDS011;73859;40.830;43.828;2023-12-20T05:50:34;41.60;;;15.27;;
83835;SDS011;73859;40.830;43.828;2023-12-20T05:53:01;31.10;;;13.50;;
83835;SDS011;73859;40.830;43.828;2023-12-20T05:55:29;37.75;;;16.60;;
83835;SDS011;73859;40.830;43.828;2023-12-20T05:57:56;29.30;;;14.63;;
83835;SDS011;73859;40.830;43.828;2023-12-20T06:00:24;33.47;;;15.70;;
83835;SDS011;73859;40.830;43.828;2023-12-20T06:02:52;30.13;;;14.77;;
83835;SDS011;73859;40.830;43.828;2023-12-20T06:05:19;34.90;;;14.38;;
83835;SDS011;73859;40.830;43.828;2023-12-20T06:07:47;31.17;;;14.18;;
83835;SDS011;73859;40.830;43.828;2023-12-20T06:10:16;22.17;;;12.18;;
83835;SDS011;73859;40.830;43.828;2023-12-20T06:12:44;29.23;;;13.18;;
83835;SDS011;73859;40.830;43.828;2023-12-20T06:15:14;20.30;;;12.13;;
83835;SDS011;73859;40.830;43.828;2023-12-20T06:17:41;19.48;;;11.57;;
83835;SDS011;73859;40.830;43.828;2023-12-20T06:20:09;20.60;;;10.32;;
83835;SDS011;73859;40.830;43.828;2023-12-20T06:22:38;25.50;;;11.50;;
83835;SDS011;73859;40.830;43.828;2023-12-20T06:25:05;24.50;;;11.02;;
83835;SDS011;73859;40.830;43.828;2023-12-20T06:27:33;20.15;;;9.82;;
83835;SDS011;73859;40.830;43.828;2023-12-20T06:30:01;19.42;;;10.77;;
83835;SDS011;73859;40.830;43.828;2023-12-20T06:32:28;18.13;;;10.48;;
83835;SDS011;73859;40.830;43.828;2023-12-20T06:34:56;24.27;;;11.43;;
83835;SDS011;73859;40.830;43.828;2023-12-20T06:37:23;19.73;;;10.65;;
83835;SDS011;73859;40.830;43.828;2023-12-20T06:39:51;13.80;;;8.38;;
83835;SDS011;73859;40.830;43.828;2023-12-20T06:42:18;17.42;;;9.15;;
83835;SDS011;73859;40.830;43.828;2023-12-20T06:44:46;19.70;;;9.32;;
83835;SDS011;73859;40.830;43.828;2023-12-20T06:47:14;20.38;;;9.23;;
83835;SDS011;73859;40.830;43.828;2023-12-20T06:49:42;17.50;;;8.65;;
83835;SDS011;73859;40.830;43.828;2023-12-20T06:52:09;18.08;;;9.73;;
83835;SDS011;73859;40.830;43.828;2023-12-20T06:54:37;24.98;;;10.43;;
83835;SDS011;73859;40.830;43.828;2023-12-20T06:57:04;24.58;;;11.60;;
83835;SDS011;73859;40.830;43.828;2023-12-20T06:59:32;26.52;;;13.90;;
83835;SDS011;73859;40.830;43.828;2023-12-20T07:01:59;29.60;;;14.88;;
83835;SDS011;73859;40.830;43.828;2023-12-20T07:04:26;26.13;;;15.00;;
83835;SDS011;73859;40.830;43.828;2023-12-20T07:06:54;31.73;;;15.18;;
83835;SDS011;73859;40.830;43.828;2023-12-20T07:09:24;31.70;;;14.68;;
83835;SDS011;73859;40.830;43.828;2023-12-20T07:11:52;29.83;;;15.77;;
83835;SDS011;73859;40.830;43.828;2023-12-20T07:14:20;29.60;;;15.32;;
83835;SDS011;73859;40.830;43.828;2023-12-20T07:16:47;32.33;;;16.77;;
83835;SDS011;73859;40.830;43.828;2023-12-20T07:19:15;31.13;;;15.10;;
83835;SDS011;73859;40.830;43.828;2023-12-20T07:21:42;35.55;;;16.73;;
83835;SDS011;73859;40.830;43.828;2023-12-20T07:24:10;35.10;;;16.13;;
83835;SDS011;73859;40.830;43.828;2023-12-20T07:26:37;33.28;;;16.40;;
83835;SDS011;73859;40.830;43.828;2023-12-20T07:31:33;31.33;;;15.35;;
83835;SDS011;73859;40.830;43.828;2023-12-20T07:34:01;33.00;;;15.90;;
83835;SDS011;73859;40.830;43.828;2023-12-20T07:36:29;28.10;;;14.73;;
83835;SDS011;73859;40.830;43.828;2023-12-20T07:38:56;42.53;;;16.35;;
83835;SDS011;73859;40.830;43.828;2023-12-20T07:41:24;26.13;;;13.07;;
83835;SDS011;73859;40.830;43.828;2023-12-20T07:43:51;31.90;;;13.02;;
83835;SDS011;73859;40.830;43.828;2023-12-20T07:48:49;25.50;;;12.15;;
83835;SDS011;73859;40.830;43.828;2023-12-20T07:51:17;27.38;;;10.85;;
83835;SDS011;73859;40.830;43.828;2023-12-20T07:53:45;21.25;;;11.73;;
83835;SDS011;73859;40.830;43.828;2023-12-20T07:58:42;23.15;;;10.55;;
83835;SDS011;73859;40.830;43.828;2023-12-20T08:01:19;22.75;;;11.93;;
83835;SDS011;73859;40.830;43.828;2023-12-20T08:06:15;23.45;;;12.23;;
83835;SDS011;73859;40.830;43.828;2023-12-20T08:08:44;26.52;;;13.07;;
83835;SDS011;73859;40.830;43.828;2023-12-20T08:11:20;30.42;;;11.88;;
83835;SDS011;73859;40.830;43.828;2023-12-20T08:13:48;25.80;;;11.98;;
83835;SDS011;73859;40.830;43.828;2023-12-20T08:16:15;24.48;;;12.98;;
83835;SDS011;73859;40.830;43.828;2023-12-20T08:18:45;26.52;;;12.60;;
83835;SDS011;73859;40.830;43.828;2023-12-20T08:21:13;22.50;;;13.32;;
83835;SDS011;73859;40.830;43.828;2023-12-20T08:23:40;19.80;;;11.18;;
83835;SDS011;73859;40.830;43.828;2023-12-20T08:26:07;20.90;;;10.77;;
83835;SDS011;73859;40.830;43.828;2023-12-20T08:28:36;22.42;;;10.75;;
83835;SDS011;73859;40.830;43.828;2023-12-20T08:31:04;21.83;;;11.52;;
83835;SDS011;73859;40.830;43.828;2023-12-20T08:33:31;19.77;;;10.48;;
83835;SDS011;73859;40.830;43.828;2023-12-20T08:35:59;20.95;;;11.30;;
83835;SDS011;73859;40.830;43.828;2023-12-20T08:38:26;18.77;;;10.95;;
83835;SDS011;73859;40.830;43.828;2023-12-20T08:40:54;20.30;;;11.30;;
83835;SDS011;73859;40.830;43.828;2023-12-20T08:43:21;22.70;;;11.95;;
83835;SDS011;73859;40.830;43.828;2023-12-20T08:45:49;18.48;;;10.13;;
83835;SDS011;73859;40.830;43.828;2023-12-20T08:48:16;18.35;;;8.90;;
83835;SDS011;73859;40.830;43.828;2023-12-20T08:50:44;19.73;;;9.00;;
83835;SDS011;73859;40.830;43.828;2023-12-20T08:53:11;15.40;;;8.93;;
83835;SDS011;73859;40.830;43.828;2023-12-20T08:55:39;18.85;;;8.52;;
83835;SDS011;73859;40.830;43.828;2023-12-20T08:58:06;17.08;;;8.88;;
83835;SDS011;73859;40.830;43.828;2023-12-20T09:03:02;14.48;;;8.13;;
83835;SDS011;73859;40.830;43.828;2023-12-20T09:05:30;13.95;;;6.82;;
83835;SDS011;73859;40.830;43.828;2023-12-20T09:07:57;13.02;;;6.68;;
83835;SDS011;73859;40.830;43.828;2023-12-20T09:10:25;15.73;;;7.05;;
83835;SDS011;73859;40.830;43.828;2023-12-20T09:12:53;14.40;;;8.18;;
83835;SDS011;73859;40.830;43.828;2023-12-20T09:15:26;16.35;;;8.18;;
83835;SDS011;73859;40.830;43.828;2023-12-20T09:17:55;20.00;;;8.65;;
83835;SDS011;73859;40.830;43.828;2023-12-20T09:20:24;16.30;;;8.18;;
83835;SDS011;73859;40.830;43.828;2023-12-20T09:22:53;12.80;;;7.90;;
83835;SDS011;73859;40.830;43.828;2023-12-20T09:25:22;15.70;;;8.63;;
83835;SDS011;73859;40.830;43.828;2023-12-20T09:27:51;15.18;;;7.45;;
83835;SDS011;73859;40.830;43.828;2023-12-20T09:30:20;11.70;;;6.63;;
83835;SDS011;73859;40.830;43.828;2023-12-20T09:32:54;14.13;;;7.47;;
83835;SDS011;73859;40.830;43.828;2023-12-20T09:35:23;12.88;;;7.03;;
83835;SDS011;73859;40.830;43.828;2023-12-20T09:37:51;13.18;;;7.18;;
83835;SDS011;73859;40.830;43.828;2023-12-20T09:40:18;13.93;;;6.10;;
83835;SDS011;73859;40.830;43.828;2023-12-20T09:42:57;11.75;;;5.97;;
83835;SDS011;73859;40.830;43.828;2023-12-20T09:45:25;9.57;;;5.35;;
83835;SDS011;73859;40.830;43.828;2023-12-20T09:47:53;12.23;;;6.55;;
83835;SDS011;73859;40.830;43.828;2023-12-20T09:50:24;11.40;;;5.88;;
83835;SDS011;73859;40.830;43.828;2023-12-20T09:52:52;12.40;;;5.68;;
83835;SDS011;73859;40.830;43.828;2023-12-20T09:55:21;10.20;;;5.72;;
83835;SDS011;73859;40.830;43.828;2023-12-20T09:57:49;12.85;;;6.10;;
83835;SDS011;73859;40.830;43.828;2023-12-20T10:00:17;10.85;;;6.28;;
83835;SDS011;73859;40.830;43.828;2023-12-20T10:02:55;12.85;;;6.65;;
83835;SDS011;73859;40.830;43.828;2023-12-20T10:05:28;12.20;;;5.72;;
83835;SDS011;73859;40.830;43.828;2023-12-20T10:07:57;12.15;;;5.95;;
83835;SDS011;73859;40.830;43.828;2023-12-20T10:10:26;9.75;;;5.68;;
83835;SDS011;73859;40.830;43.828;2023-12-20T10:13:09;9.43;;;5.15;;
83835;SDS011;73859;40.830;43.828;2023-12-20T10:15:37;12.25;;;6.25;;
83835;SDS011;73859;40.830;43.828;2023-12-20T10:18:05;12.55;;;5.47;;
83835;SDS011;73859;40.830;43.828;2023-12-20T10:20:34;12.27;;;6.70;;
83835;SDS011;73859;40.830;43.828;2023-12-20T10:23:01;9.63;;;6.22;;
83835;SDS011;73859;40.830;43.828;2023-12-20T10:25:29;11.38;;;6.68;;
83835;SDS011;73859;40.830;43.828;2023-12-20T10:28:14;12.45;;;7.20;;
83835;SDS011;73859;40.830;43.828;2023-12-20T10:30:48;10.13;;;5.50;;
83835;SDS011;73859;40.830;43.828;2023-12-20T10:33:23;14.15;;;6.78;;
83835;SDS011;73859;40.830;43.828;2023-12-20T10:35:53;14.73;;;7.38;;
83835;SDS011;73859;40.830;43.828;2023-12-20T10:38:23;10.07;;;4.97;;
83835;SDS011;73859;40.830;43.828;2023-12-20T10:40:53;12.77;;;5.93;;
83835;SDS011;73859;40.830;43.828;2023-12-20T10:43:26;13.68;;;6.07;;
83835;SDS011;73859;40.830;43.828;2023-12-20T10:45:56;11.27;;;5.95;;
83835;SDS011;73859;40.830;43.828;2023-12-20T10:48:24;11.55;;;6.07;;
83835;SDS011;73859;40.830;43.828;2023-12-20T10:50:56;11.38;;;6.20;;
83835;SDS011;73859;40.830;43.828;2023-12-20T10:53:25;10.45;;;6.20;;
83835;SDS011;73859;40.830;43.828;2023-12-20T10:55:52;11.65;;;6.75;;
83835;SDS011;73859;40.830;43.828;2023-12-20T10:58:25;9.85;;;5.93;;
83835;SDS011;73859;40.830;43.828;2023-12-20T11:00:59;10.27;;;6.30;;
83835;SDS011;73859;40.830;43.828;2023-12-20T11:03:32;10.77;;;6.38;;
83835;SDS011;73859;40.830;43.828;2023-12-20T11:06:04;13.68;;;6.72;;
83835;SDS011;73859;40.830;43.828;2023-12-20T11:08:47;12.55;;;7.07;;
83835;SDS011;73859;40.830;43.828;2023-12-20T11:11:28;12.35;;;6.68;;
83835;SDS011;73859;40.830;43.828;2023-12-20T11:14:14;11.15;;;6.72;;
83835;SDS011;73859;40.830;43.828;2023-12-20T11:16:46;14.30;;;7.57;;
83835;SDS011;73859;40.830;43.828;2023-12-20T11:19:21;14.38;;;7.53;;
83835;SDS011;73859;40.830;43.828;2023-12-20T11:21:48;12.05;;;7.30;;
83835;SDS011;73859;40.830;43.828;2023-12-20T11:24:16;13.77;;;7.35;;
83835;SDS011;73859;40.830;43.828;2023-12-20T11:26:48;12.23;;;7.47;;
83835;SDS011;73859;40.830;43.828;2023-12-20T11:29:38;12.90;;;8.10;;
83835;SDS011;73859;40.830;43.828;2023-12-20T11:34:55;10.98;;;7.53;;
83835;SDS011;73859;40.830;43.828;2023-12-20T11:37:31;11.25;;;7.75;;
83835;SDS011;73859;40.830;43.828;2023-12-20T11:40:07;9.75;;;6.53;;
83835;SDS011;73859;40.830;43.828;2023-12-20T11:42:38;10.85;;;6.60;;
83835;SDS011;73859;40.830;43.828;2023-12-20T11:45:14;11.75;;;6.65;;
83835;SDS011;73859;40.830;43.828;2023-12-20T11:47:46;10.18;;;5.63;;
83835;SDS011;73859;40.830;43.828;2023-12-20T11:50:18;10.57;;;6.35;;
83835;SDS011;73859;40.830;43.828;2023-12-20T11:52:46;11.13;;;6.75;;
83835;SDS011;73859;40.830;43.828;2023-12-20T11:55:14;11.90;;;6.75;;
83835;SDS011;73859;40.830;43.828;2023-12-20T11:57:42;15.88;;;7.57;;
83835;SDS011;73859;40.830;43.828;2023-12-20T12:00:11;11.07;;;7.30;;
83835;SDS011;73859;40.830;43.828;2023-12-20T12:02:40;13.77;;;8.05;;
83835;SDS011;73859;40.830;43.828;2023-12-20T12:05:08;10.13;;;6.22;;
83835;SDS011;73859;40.830;43.828;2023-12-20T12:07:36;13.38;;;7.32;;
83835;SDS011;73859;40.830;43.828;2023-12-20T12:10:03;9.93;;;6.60;;
83835;SDS011;73859;40.830;43.828;2023-12-20T12:12:31;12.27;;;7.43;;
83835;SDS011;73859;40.830;43.828;2023-12-20T12:14:59;10.82;;;7.65;;
83835;SDS011;73859;40.830;43.828;2023-12-20T12:17:27;11.88;;;6.80;;
83835;SDS011;73859;40.830;43.828;2023-12-20T12:20:01;12.27;;;6.25;;
83835;SDS011;73859;40.830;43.828;2023-12-20T12:22:31;12.13;;;7.95;;
83835;SDS011;73859;40.830;43.828;2023-12-20T12:25:09;10.30;;;7.32;;
83835;SDS011;73859;40.830;43.828;2023-12-20T12:27:41;12.10;;;7.90;;
83835;SDS011;73859;40.830;43.828;2023-12-20T12:30:10;12.85;;;7.78;;
83835;SDS011;73859;40.830;43.828;2023-12-20T12:32:40;11.45;;;7.13;;
83835;SDS011;73859;40.830;43.828;2023-12-20T12:35:08;12.95;;;7.40;;
83835;SDS011;73859;40.830;43.828;2023-12-20T12:37:37;14.68;;;7.05;;
83835;SDS011;73859;40.830;43.828;2023-12-20T12:40:07;12.95;;;8.30;;
83835;SDS011;73859;40.830;43.828;2023-12-20T12:42:37;11.85;;;6.95;;
83835;SDS011;73859;40.830;43.828;2023-12-20T12:45:05;12.20;;;7.75;;
83835;SDS011;73859;40.830;43.828;2023-12-20T12:47:33;11.02;;;7.05;;
83835;SDS011;73859;40.830;43.828;2023-12-20T12:50:01;14.30;;;7.82;;
83835;SDS011;73859;40.830;43.828;2023-12-20T12:52:30;10.82;;;6.80;;
83835;SDS011;73859;40.830;43.828;2023-12-20T12:54:58;11.18;;;6.93;;
83835;SDS011;73859;40.830;43.828;2023-12-20T12:57:25;12.52;;;7.25;;
83835;SDS011;73859;40.830;43.828;2023-12-20T12:59:53;13.15;;;7.70;;
83835;SDS011;73859;40.830;43.828;2023-12-20T13:02:21;13.85;;;7.00;;
83835;SDS011;73859;40.830;43.828;2023-12-20T13:04:48;13.88;;;7.15;;
83835;SDS011;73859;40.830;43.828;2023-12-20T13:07:16;12.80;;;6.72;;
83835;SDS011;73859;40.830;43.828;2023-12-20T13:09:43;12.98;;;7.60;;
83835;SDS011;73859;40.830;43.828;2023-12-20T13:12:11;12.07;;;6.47;;
83835;SDS011;73859;40.830;43.828;2023-12-20T13:14:38;11.05;;;5.88;;
83835;SDS011;73859;40.830;43.828;2023-12-20T13:17:07;11.70;;;5.95;;
83835;SDS011;73859;40.830;43.828;2023-12-20T13:19:34;10.73;;;5.55;;
83835;SDS011;73859;40.830;43.828;2023-12-20T13:24:31;13.23;;;5.28;;
83835;SDS011;73859;40.830;43.828;2023-12-20T13:26:59;10.02;;;6.30;;
83835;SDS011;73859;40.830;43.828;2023-12-20T13:31:56;16.40;;;5.40;;
83835;SDS011;73859;40.830;43.828;2023-12-20T13:34:24;18.83;;;5.72;;
83835;SDS011;73859;40.830;43.828;2023-12-20T13:36:52;13.63;;;6.00;;
83835;SDS011;73859;40.830;43.828;2023-12-20T13:39:19;10.80;;;6.57;;
83835;SDS011;73859;40.830;43.828;2023-12-20T13:41:48;9.35;;;5.03;;
83835;SDS011;73859;40.830;43.828;2023-12-20T13:44:15;12.48;;;5.50;;
83835;SDS011;73859;40.830;43.828;2023-12-20T13:46:43;19.88;;;6.50;;
83835;SDS011;73859;40.830;43.828;2023-12-20T13:49:12;16.42;;;7.18;;
83835;SDS011;73859;40.830;43.828;2023-12-20T13:51:39;17.73;;;6.78;;
83835;SDS011;73859;40.830;43.828;2023-12-20T13:54:07;16.63;;;7.00;;
83835;SDS011;73859;40.830;43.828;2023-12-20T13:56:34;19.35;;;6.97;;
83835;SDS011;73859;40.830;43.828;2023-12-20T13:59:12;10.57;;;5.55;;
83835;SDS011;73859;40.830;43.828;2023-12-20T14:01:41;13.50;;;6.50;;
83835;SDS011;73859;40.830;43.828;2023-12-20T14:04:09;14.57;;;6.55;;
83835;SDS011;73859;40.830;43.828;2023-12-20T14:06:58;14.32;;;7.00;;
83835;SDS011;73859;40.830;43.828;2023-12-20T14:09:25;14.05;;;7.72;;
83835;SDS011;73859;40.830;43.828;2023-12-20T14:11:52;17.60;;;7.38;;
83835;SDS011;73859;40.830;43.828;2023-12-20T14:14:21;14.20;;;7.05;;
83835;SDS011;73859;40.830;43.828;2023-12-20T14:16:49;16.30;;;8.20;;
83835;SDS011;73859;40.830;43.828;2023-12-20T14:19:16;139.43;;;52.10;;
83835;SDS011;73859;40.830;43.828;2023-12-20T14:21:45;194.55;;;82.82;;
83835;SDS011;73859;40.830;43.828;2023-12-20T14:24:12;85.50;;;43.42;;
83835;SDS011;73859;40.830;43.828;2023-12-20T14:26:41;93.05;;;52.25;;
83835;SDS011;73859;40.830;43.828;2023-12-20T14:29:08;59.70;;;33.53;;
83835;SDS011;73859;40.830;43.828;2023-12-20T14:31:36;54.47;;;33.67;;
83835;SDS011;73859;40.830;43.828;2023-12-20T14:34:06;30.50;;;17.58;;
83835;SDS011;73859;40.830;43.828;2023-12-20T14:36:34;20.10;;;12.00;;
83835;SDS011;73859;40.830;43.828;2023-12-20T14:39:02;19.90;;;10.57;;
83835;SDS011;73859;40.830;43.828;2023-12-20T14:41:31;21.88;;;10.13;;
83835;SDS011;73859;40.830;43.828;2023-12-20T14:43:59;18.40;;;9.20;;
83835;SDS011;73859;40.830;43.828;2023-12-20T14:46:31;24.08;;;11.68;;